createdAt,value
2018-04-30T00:01:24.927Z,4.35
2018-04-30T00:07:15.557Z,4.04
2018-04-30T00:13:06.175Z,4.07
2018-04-30T00:18:56.896Z,3.51
2018-04-30T00:24:47.468Z,3.69
2018-04-30T00:30:38.107Z,3.88
2018-04-30T00:36:28.764Z,4.07
2018-04-30T00:42:19.377Z,3.73
2018-04-30T00:48:10.035Z,3.86
2018-04-30T00:54:00.643Z,3.74
2018-04-30T00:59:51.256Z,4.33
2018-04-30T01:05:41.870Z,4.24
2018-04-30T01:11:32.470Z,4.91
2018-04-30T01:17:23.092Z,4.84
2018-04-30T01:23:13.731Z,4.19
2018-04-30T01:29:04.396Z,4.44
2018-04-30T01:34:54.992Z,4.27
2018-04-30T01:40:45.645Z,4.53
2018-04-30T01:46:36.222Z,4
2018-04-30T01:52:26.858Z,4.4
2018-04-30T01:58:17.542Z,5.11
2018-04-30T02:04:08.074Z,4.41
2018-04-30T02:09:58.759Z,4.72
2018-04-30T02:15:49.370Z,4.44
2018-04-30T02:21:39.928Z,4.29
2018-04-30T02:27:30.530Z,5.33
2018-04-30T02:33:21.196Z,4.81
2018-04-30T02:39:11.804Z,5.37
2018-04-30T02:45:02.450Z,4.61
2018-04-30T02:50:53.033Z,4.66
2018-04-30T02:56:43.637Z,5.76
2018-04-30T03:02:34.271Z,5.4
2018-04-30T03:08:24.873Z,5.02
2018-04-30T03:14:15.482Z,4.5
2018-04-30T03:20:06.115Z,5.07
2018-04-30T03:25:56.743Z,3.97
2018-04-30T03:31:47.373Z,4.87
2018-04-30T03:37:37.976Z,4.89
2018-04-30T03:43:28.590Z,5.45
2018-04-30T03:49:19.203Z,4.82
2018-04-30T03:55:09.810Z,4.91
2018-04-30T04:01:00.385Z,5.07
2018-04-30T04:06:51.005Z,5.19
2018-04-30T04:12:41.668Z,6.88
2018-04-30T04:18:32.204Z,7.11
2018-04-30T04:24:22.823Z,6.48
2018-04-30T04:30:13.445Z,5.09
2018-04-30T04:36:04.079Z,6.11
2018-04-30T04:41:54.665Z,7.21
2018-04-30T04:47:45.254Z,11.29
2018-04-30T04:53:35.926Z,5.44
2018-04-30T04:59:26.503Z,5.1
2018-04-30T05:05:17.129Z,6.85
2018-04-30T05:11:07.693Z,6.99
2018-04-30T05:16:58.377Z,5.78
2018-04-30T05:22:48.992Z,4.9
2018-04-30T05:28:39.594Z,5.19
2018-04-30T05:34:30.228Z,5.09
2018-04-30T05:40:20.845Z,4.26
2018-04-30T05:46:11.476Z,4.73
2018-04-30T05:52:02.092Z,4.4
2018-04-30T05:57:52.831Z,6.38
2018-04-30T06:03:43.383Z,4.94
2018-04-30T06:09:34.026Z,4.17
2018-04-30T06:15:24.729Z,5.25
2018-04-30T06:21:15.369Z,8.89
2018-04-30T06:27:05.966Z,4.42
2018-04-30T06:32:56.633Z,4.19
2018-04-30T06:38:47.361Z,4.41
2018-04-30T06:44:37.974Z,3.87
2018-04-30T06:50:28.680Z,3.59
2018-04-30T06:56:19.340Z,4.35
2018-04-30T07:02:10.008Z,3.38
2018-04-30T07:08:00.657Z,3.52
2018-04-30T07:13:51.316Z,4.53
2018-04-30T07:19:42.017Z,3.36
2018-04-30T07:25:32.679Z,7.33
2018-04-30T07:31:23.337Z,3.39
2018-04-30T07:37:14.073Z,4.54
2018-04-30T07:43:04.692Z,4.3
2018-04-30T07:48:55.376Z,7.74
2018-04-30T07:54:46.042Z,4.29
2018-04-30T08:00:36.726Z,3.26
2018-04-30T08:06:27.409Z,3.96
2018-04-30T08:12:18.071Z,3.91
2018-04-30T08:18:08.759Z,6.29
2018-04-30T08:23:59.394Z,3.96
2018-04-30T08:29:50.149Z,3.5
2018-04-30T08:35:40.800Z,2.93
2018-04-30T08:41:31.490Z,2.98
2018-04-30T08:47:22.135Z,2.83
2018-04-30T08:53:12.795Z,3.69
2018-04-30T08:59:03.482Z,3.65
2018-04-30T09:04:54.160Z,4.18
2018-04-30T09:10:44.786Z,2.74
2018-04-30T09:16:35.482Z,2.87
2018-04-30T09:22:26.124Z,2.97
2018-04-30T09:28:16.971Z,3
2018-04-30T09:34:07.490Z,2.96
2018-04-30T09:39:58.169Z,2.72
2018-04-30T09:45:48.869Z,3.09
2018-04-30T09:51:39.550Z,4.4
2018-04-30T09:57:30.148Z,4.49
2018-04-30T10:03:20.831Z,2.98
2018-04-30T10:09:11.560Z,6.9
2018-04-30T10:15:02.191Z,2.76
2018-04-30T10:20:52.823Z,2.98
2018-04-30T10:26:43.501Z,7.6
2018-04-30T10:32:34.221Z,3.14
2018-04-30T10:38:24.884Z,4.25
2018-04-30T10:44:15.511Z,4.11
2018-04-30T10:50:06.161Z,3.85
2018-04-30T10:55:56.851Z,3.7
2018-04-30T11:01:47.524Z,3.55
2018-04-30T11:07:38.185Z,3.58
2018-04-30T11:13:28.899Z,3.99
2018-04-30T11:19:19.564Z,4.11
2018-04-30T11:25:10.245Z,3.79
2018-04-30T11:31:00.929Z,3.1
2018-04-30T11:36:51.574Z,4.45
2018-04-30T11:42:42.260Z,3.43
2018-04-30T11:48:32.880Z,3.8
2018-04-30T11:54:23.560Z,4.41
2018-04-30T12:00:14.256Z,3.99
2018-04-30T12:06:04.929Z,4.18
2018-04-30T12:11:55.566Z,4.66
2018-04-30T12:17:46.240Z,3.99
2018-04-30T12:23:36.899Z,4.44
2018-04-30T12:29:27.561Z,5.4
2018-04-30T12:35:18.254Z,16.26
2018-04-30T12:41:08.897Z,3.99
2018-04-30T12:46:59.587Z,9.27
2018-04-30T12:52:50.226Z,9.79
2018-04-30T12:58:40.890Z,9.47
2018-04-30T13:04:31.624Z,5.45
2018-04-30T13:10:22.226Z,4.43
2018-04-30T13:16:12.898Z,4.69
2018-04-30T13:22:03.599Z,4.07
2018-04-30T13:27:54.252Z,5.91
2018-04-30T13:33:44.956Z,6.1
2018-04-30T13:39:35.583Z,3.82
2018-04-30T13:45:26.224Z,3.67
2018-04-30T13:51:16.902Z,3.57
2018-04-30T13:57:07.565Z,4.05
2018-04-30T14:02:58.264Z,3.67
2018-04-30T14:08:48.908Z,3.83
2018-04-30T14:14:39.543Z,3.16
2018-04-30T14:20:30.234Z,3.93
2018-04-30T14:26:20.927Z,3.3
2018-04-30T14:32:11.596Z,2.46
2018-04-30T14:38:02.223Z,3.31
2018-04-30T14:43:52.914Z,4.1
2018-04-30T14:49:43.616Z,3.47
2018-04-30T14:55:34.274Z,3.15
2018-04-30T15:01:24.930Z,2.79
2018-04-30T15:07:15.582Z,2.8
2018-04-30T15:13:06.238Z,3.91
2018-04-30T15:18:56.905Z,3.53
2018-04-30T15:24:47.599Z,3.49
2018-04-30T15:30:38.268Z,3.03
2018-04-30T15:36:28.952Z,3.22
2018-04-30T15:42:19.617Z,3.77
2018-04-30T15:48:10.251Z,3.2
2018-04-30T15:54:00.912Z,3.07
2018-04-30T15:59:53.410Z,3.76
2018-04-30T16:05:42.277Z,3.26
2018-04-30T16:11:32.895Z,3.07
2018-04-30T16:17:23.590Z,2.86
2018-04-30T16:23:14.227Z,3.49
2018-04-30T16:29:04.903Z,3.36
2018-04-30T16:34:55.613Z,3.77
2018-04-30T16:40:46.251Z,2.99
2018-04-30T16:46:36.918Z,3.03
2018-04-30T16:52:27.577Z,3.17
2018-04-30T16:58:18.275Z,4.19
2018-04-30T17:04:08.933Z,4.53
2018-04-30T17:09:59.513Z,3.07
2018-04-30T17:15:50.234Z,3.5
2018-04-30T17:21:40.894Z,3.18
2018-04-30T17:27:31.511Z,3.31
2018-04-30T17:33:22.155Z,4.14
2018-04-30T17:39:12.821Z,3.42
2018-04-30T17:45:03.531Z,3.8
2018-04-30T17:50:54.184Z,3.93
2018-04-30T17:56:44.793Z,3.98
2018-04-30T18:02:35.425Z,5.65
2018-04-30T18:08:26.078Z,4.31
2018-04-30T18:14:16.726Z,5.04
2018-04-30T18:20:07.370Z,4.61
2018-04-30T18:25:57.996Z,4.31
2018-04-30T18:31:48.588Z,4.83
2018-04-30T18:37:39.207Z,5.04
2018-04-30T18:43:29.922Z,5.5
2018-04-30T18:49:20.517Z,5.11
2018-04-30T18:55:11.185Z,5.37
2018-04-30T19:01:01.762Z,5.43
2018-04-30T19:06:52.382Z,4.33
2018-04-30T19:12:42.992Z,4.62
2018-04-30T19:18:33.612Z,5.06
2018-04-30T19:24:24.245Z,5.35
2018-04-30T19:30:14.900Z,5.59
2018-04-30T19:36:05.515Z,13.04
2018-04-30T19:41:56.129Z,21.89
2018-04-30T19:47:46.764Z,21.35
2018-04-30T19:53:37.387Z,10.75
2018-04-30T19:59:27.991Z,15.55
2018-04-30T20:05:18.626Z,28.23
2018-04-30T20:11:09.249Z,13.36
2018-04-30T20:16:59.956Z,7.42
2018-04-30T20:22:50.600Z,7.17
2018-04-30T20:28:41.084Z,7.47
2018-04-30T20:34:31.701Z,7.5
2018-04-30T20:40:22.307Z,7.47
2018-04-30T20:46:12.912Z,7.64
2018-04-30T20:52:03.570Z,7.15
2018-04-30T20:57:54.188Z,7.17
2018-04-30T21:03:44.799Z,6.8
2018-04-30T21:09:35.406Z,6.94
2018-04-30T21:15:26.010Z,8.07
2018-04-30T21:21:16.716Z,6.19
2018-04-30T21:27:07.207Z,6.41
2018-04-30T21:32:57.858Z,7.11
2018-04-30T21:38:48.477Z,6.57
2018-04-30T21:44:39.085Z,6.17
2018-04-30T21:50:29.691Z,17.55
2018-04-30T21:56:20.285Z,6.83
2018-04-30T22:02:10.881Z,5.57
2018-04-30T22:08:01.457Z,6.03
2018-04-30T22:13:52.109Z,6
2018-04-30T22:19:42.683Z,6.78
2018-04-30T22:25:33.259Z,6.74
2018-04-30T22:31:23.873Z,14.95
2018-04-30T22:37:14.497Z,12.85
2018-04-30T22:43:05.148Z,19.17
2018-04-30T22:48:55.697Z,6.1
2018-04-30T22:54:46.332Z,6.01
2018-04-30T23:00:36.911Z,5.66
2018-04-30T23:06:27.542Z,5.96
2018-04-30T23:12:18.144Z,7.47
2018-04-30T23:18:08.761Z,5.94
2018-04-30T23:23:59.356Z,6.86
2018-04-30T23:29:50.089Z,6.53
2018-04-30T23:35:40.619Z,6.19
2018-04-30T23:41:31.200Z,6.28
2018-04-30T23:47:21.812Z,5.49
2018-04-30T23:53:12.464Z,6.23
2018-04-30T23:59:02.984Z,6.11
